createdAt,value
2023-02-22T00:00:50.132Z,95773.84
2023-02-22T00:02:10.497Z,95781.41
2023-02-22T00:03:16.490Z,95779.00
2023-02-22T00:04:21.159Z,95777.19
2023-02-22T00:05:24.862Z,95771.25
2023-02-22T00:06:26.490Z,95779.59
2023-02-22T00:07:28.100Z,95769.91
2023-02-22T00:08:32.010Z,95774.72
2023-02-22T00:09:33.666Z,95785.22
2023-02-22T00:10:38.345Z,95776.88
2023-02-22T00:11:46.587Z,95775.56
2023-02-22T00:12:51.198Z,95775.81
2023-02-22T00:13:57.044Z,95775.56
2023-02-22T00:14:58.680Z,95771.56
2023-02-22T00:16:01.129Z,95775.28
2023-02-22T00:17:02.710Z,95768.03
2023-02-22T00:18:04.741Z,95771.81
2023-02-22T00:19:06.337Z,95778.81
2023-02-22T00:20:10.149Z,95772.88
2023-02-22T00:21:13.123Z,95775.31
2023-02-22T00:22:19.049Z,95769.69
2023-02-22T00:23:22.140Z,95773.19
2023-02-22T00:24:24.644Z,95770.75
2023-02-22T00:25:26.314Z,95778.03
2023-02-22T00:26:27.964Z,95772.38
2023-02-22T00:27:29.559Z,95775.88
2023-02-22T00:28:31.213Z,95780.19
2023-02-22T00:29:34.406Z,95776.41
2023-02-22T00:30:36.018Z,95779.38
2023-02-22T00:31:39.234Z,95777.47
2023-02-22T00:32:40.927Z,95770.47
2023-02-22T00:33:42.873Z,95773.97
2023-02-22T00:34:44.579Z,95768.56
2023-02-22T00:35:46.339Z,95763.16
2023-02-22T00:36:49.572Z,95775.03
2023-02-22T00:37:53.204Z,95766.16
2023-02-22T00:38:55.662Z,95773.16
2023-02-22T00:39:57.201Z,95766.16
2023-02-22T00:40:58.869Z,95767.78
2023-02-22T00:42:00.632Z,95768.06
2023-02-22T00:43:05.697Z,95761.59
2023-02-22T00:44:07.269Z,95764.28
2023-02-22T00:45:09.156Z,95774.50
2023-02-22T00:46:10.874Z,95768.59
2023-02-22T00:47:12.725Z,95771.31
2023-02-22T00:48:14.687Z,95766.97
2023-02-22T00:49:16.901Z,95763.47
2023-02-22T00:50:19.126Z,95773.16
2023-02-22T00:51:20.935Z,95757.59
2023-02-22T00:52:26.322Z,95764.56
2023-02-22T00:53:28.015Z,95766.47
2023-02-22T00:54:29.641Z,95769.16
2023-02-22T00:55:35.075Z,95769.72
2023-02-22T00:56:37.524Z,95762.44
2023-02-22T00:57:40.171Z,95770.75
2023-02-22T00:58:41.622Z,95767.00
2023-02-22T00:59:43.199Z,95776.69
2023-02-22T01:00:45.819Z,95760.81
2023-02-22T01:01:48.921Z,95768.63
2023-02-22T01:02:53.306Z,95767.25
2023-02-22T01:03:55.026Z,95762.69
2023-02-22T01:04:56.770Z,95762.16
2023-02-22T01:05:58.581Z,95765.41
2023-02-22T01:07:00.578Z,95757.88
2023-02-22T01:08:03.142Z,95765.13
2023-02-22T01:09:04.747Z,95759.75
2023-02-22T01:10:08.615Z,95765.66
2023-02-22T01:11:10.322Z,95762.44
2023-02-22T01:12:13.404Z,95764.84
2023-02-22T01:13:15.437Z,95763.19
2023-02-22T01:14:18.216Z,95764.00
2023-02-22T01:15:24.494Z,95764.81
2023-02-22T01:16:26.435Z,95758.34
2023-02-22T01:17:28.030Z,95761.88
2023-02-22T01:18:29.628Z,95757.56
2023-02-22T01:19:32.307Z,95767.00
2023-02-22T01:20:33.958Z,95756.22
2023-02-22T01:21:35.588Z,95753.53
2023-02-22T01:22:37.471Z,95748.19
2023-02-22T01:23:39.077Z,95742.81
2023-02-22T01:24:40.777Z,95739.03
2023-02-22T01:25:43.483Z,95740.34
2023-02-22T01:26:52.491Z,95737.41
2023-02-22T01:27:54.787Z,95743.31
2023-02-22T01:28:56.388Z,95732.84
2023-02-22T01:29:59.969Z,95746.56
2023-02-22T01:31:02.848Z,95738.78
2023-02-22T01:32:06.569Z,95737.41
2023-02-22T01:33:09.176Z,95732.84
2023-02-22T01:34:12.868Z,95741.19
2023-02-22T01:35:18.468Z,95737.94
2023-02-22T01:36:20.115Z,95741.19
2023-02-22T01:37:21.712Z,95740.91
2023-02-22T01:38:23.246Z,95729.06
2023-02-22T01:39:24.905Z,95727.19
2023-02-22T01:40:34.195Z,95727.19
2023-02-22T01:41:36.897Z,95728.53
2023-02-22T01:42:39.805Z,95719.09
2023-02-22T01:43:41.408Z,95716.72
2023-02-22T01:44:43.032Z,95732.28
2023-02-22T01:45:54.940Z,95731.22
2023-02-22T01:46:58.256Z,95725.03
2023-02-22T01:48:14.971Z,95725.03
2023-02-22T01:49:16.761Z,95725.06
2023-02-22T01:50:18.320Z,95714.28
2023-02-22T01:51:24.873Z,95709.16
2023-02-22T01:52:26.492Z,95717.50
2023-02-22T01:53:38.282Z,95716.19
2023-02-22T01:54:43.955Z,95711.84
2023-02-22T01:55:46.753Z,95714.28
2023-02-22T01:57:00.155Z,95715.88
2023-02-22T01:58:02.773Z,95714.00
2023-02-22T01:59:06.902Z,95716.97
2023-02-22T02:00:13.015Z,95710.22
2023-02-22T02:01:19.299Z,95721.81
2023-02-22T02:02:21.697Z,95715.63
2023-02-22T02:03:27.680Z,95715.09
2023-02-22T02:04:29.323Z,95701.91
2023-02-22T02:05:31.978Z,95712.38
2023-02-22T02:06:34.812Z,95711.06
2023-02-22T02:07:37.457Z,95710.53
2023-02-22T02:08:57.275Z,95709.97
2023-02-22T02:10:01.399Z,95709.97
2023-02-22T02:11:09.247Z,95700.56
2023-02-22T02:12:12.776Z,95698.13
2023-02-22T02:13:16.120Z,95705.66
2023-02-22T02:14:18.040Z,95707.00
2023-02-22T02:15:22.584Z,95708.63
2023-02-22T02:16:41.074Z,95703.25
2023-02-22T02:17:45.235Z,95697.09
2023-02-22T02:18:46.876Z,95701.91
2023-02-22T02:19:55.840Z,95699.75
2023-02-22T02:21:18.939Z,95709.16
2023-02-22T02:23:08.380Z,95702.69
2023-02-22T02:24:34.638Z,95709.97
2023-02-22T02:25:39.179Z,95711.31
2023-02-22T02:27:11.801Z,95707.28
2023-02-22T02:28:35.187Z,95711.06
2023-02-22T02:29:48.827Z,95704.06
2023-02-22T02:31:16.834Z,95712.41
2023-02-22T02:32:46.633Z,95717.50
2023-02-22T02:33:48.250Z,95714.28
2023-02-22T02:34:55.561Z,95716.97
2023-02-22T02:36:04.126Z,95718.59
2023-02-22T02:37:18.082Z,95712.13
2023-02-22T02:38:31.683Z,95710.25
2023-02-22T02:39:53.732Z,95720.19
2023-02-22T02:40:58.315Z,95708.34
2023-02-22T02:42:00.919Z,95716.69
2023-02-22T02:43:02.309Z,95715.34
2023-02-22T02:44:14.599Z,95712.63
2023-02-22T02:45:20.512Z,95716.94
2023-02-22T02:46:35.469Z,95711.81
2023-02-22T02:47:40.754Z,95708.56
2023-02-22T02:48:51.513Z,95704.25
2023-02-22T02:50:13.351Z,95696.19
2023-02-22T02:51:16.201Z,95702.91
2023-02-22T02:52:19.344Z,95703.16
2023-02-22T02:53:27.101Z,95704.78
2023-02-22T02:54:29.317Z,95704.25
2023-02-22T02:55:31.891Z,95705.06
2023-02-22T02:56:33.702Z,95697.81
2023-02-22T02:57:35.418Z,95702.66
2023-02-22T02:58:52.794Z,95704.00
2023-02-22T02:59:54.419Z,95704.00
2023-02-22T03:00:59.872Z,95706.19
2023-02-22T03:02:27.400Z,95701.34
2023-02-22T03:03:53.677Z,95700.50
2023-02-22T03:05:13.776Z,95708.56
2023-02-22T03:06:24.335Z,95708.84
2023-02-22T03:07:31.762Z,95702.66
2023-02-22T03:08:51.523Z,95707.25
2023-02-22T03:09:54.772Z,95703.50
2023-02-22T03:11:17.870Z,95698.38
2023-02-22T03:12:48.719Z,95702.97
2023-02-22T03:14:07.276Z,95698.09
2023-02-22T03:15:33.481Z,95699.19
2023-02-22T03:16:54.706Z,95703.50
2023-02-22T03:18:22.842Z,95692.22
2023-02-22T03:19:35.856Z,95693.00
2023-02-22T03:20:48.431Z,95696.00
2023-02-22T03:21:57.216Z,95693.00
2023-02-22T03:23:04.183Z,95689.50
2023-02-22T03:24:09.983Z,95687.09
2023-02-22T03:25:16.955Z,95684.94
2023-02-22T03:26:24.441Z,95682.78
2023-02-22T03:27:49.623Z,95691.16
2023-02-22T03:28:53.282Z,95696.25
2023-02-22T03:30:00.388Z,95683.34
2023-02-22T03:31:13.112Z,95689.78
2023-02-22T03:32:22.855Z,95679.84
2023-02-22T03:33:33.820Z,95678.78
2023-02-22T03:34:45.954Z,95679.34
2023-02-22T03:35:56.975Z,95679.31
2023-02-22T03:37:06.544Z,95670.72
2023-02-22T03:38:10.259Z,95682.28
2023-02-22T03:39:16.032Z,95680.41
2023-02-22T03:40:26.370Z,95687.91
2023-02-22T03:41:31.405Z,95682.03
2023-02-22T03:42:37.594Z,95686.59
2023-02-22T03:43:44.550Z,95676.09
2023-02-22T03:44:50.020Z,95674.50
2023-02-22T03:45:52.076Z,95677.44
2023-02-22T03:46:56.837Z,95685.78
2023-02-22T03:48:04.646Z,95677.41
2023-02-22T03:49:09.038Z,95686.84
2023-02-22T03:50:20.876Z,95688.16
2023-02-22T03:51:22.917Z,95680.41
2023-02-22T03:52:28.856Z,95679.03
2023-02-22T03:53:33.169Z,95682.78
2023-02-22T03:54:35.135Z,95675.56
2023-02-22T03:55:37.345Z,95682.53
2023-02-22T03:56:47.545Z,95677.44
2023-02-22T03:57:52.918Z,95672.88
2023-02-22T03:58:55.356Z,95679.84
2023-02-22T03:59:57.038Z,95675.84
2023-02-22T04:00:58.663Z,95672.06
2023-02-22T04:02:00.244Z,95674.19
2023-02-22T04:03:04.438Z,95677.16
2023-02-22T04:04:06.264Z,95677.16
2023-02-22T04:05:08.375Z,95678.78
2023-02-22T04:06:10.232Z,95668.84
2023-02-22T04:07:11.935Z,95678.78
2023-02-22T04:08:14.192Z,95673.94
2023-02-22T04:09:16.741Z,95669.91
2023-02-22T04:10:19.478Z,95671.50
2023-02-22T04:11:21.256Z,95676.63
2023-02-22T04:12:22.943Z,95665.34
2023-02-22T04:13:34.964Z,95663.72
2023-02-22T04:14:37.426Z,95668.31
2023-02-22T04:15:39.155Z,95653.50
2023-02-22T04:16:43.622Z,95664.25
2023-02-22T04:17:45.289Z,95657.53
2023-02-22T04:18:49.157Z,95648.66
2023-02-22T04:19:53.167Z,95652.97
2023-02-22T04:20:56.852Z,95661.28
2023-02-22T04:22:12.143Z,95647.84
2023-02-22T04:23:13.789Z,95654.59
2023-02-22T04:24:16.671Z,95656.72
2023-02-22T04:25:18.842Z,95649.75
2023-02-22T04:26:21.880Z,95650.81
2023-02-22T04:27:28.150Z,95643.03
2023-02-22T04:28:31.206Z,95646.25
2023-02-22T04:29:48.672Z,95644.34
2023-02-22T04:30:50.588Z,95646.00
2023-02-22T04:31:53.734Z,95640.34
2023-02-22T04:32:56.062Z,95649.22
2023-02-22T04:33:57.940Z,95643.81
2023-02-22T04:35:05.355Z,95644.63
2023-02-22T04:36:08.000Z,95635.50
2023-02-22T04:37:10.485Z,95636.31
2023-02-22T04:38:12.076Z,95641.13
2023-02-22T04:39:15.454Z,95647.06
2023-02-22T04:40:19.170Z,95639.00
2023-02-22T04:41:25.257Z,95640.06
2023-02-22T04:42:27.723Z,95643.28
2023-02-22T04:43:30.165Z,95621.00
2023-02-22T04:44:39.623Z,95637.09
2023-02-22T04:45:41.310Z,95639.53
2023-02-22T04:46:43.731Z,95641.13
2023-02-22T04:47:47.999Z,95643.28
2023-02-22T04:48:49.845Z,95636.84
2023-02-22T04:49:55.868Z,95641.38
2023-02-22T04:50:57.476Z,95628.75
2023-02-22T04:51:59.506Z,95638.97
2023-02-22T04:53:08.560Z,95629.31
2023-02-22T04:54:13.634Z,95626.63
2023-02-22T04:55:20.613Z,95629.31
2023-02-22T04:56:22.340Z,95632.28
2023-02-22T04:57:24.106Z,95636.84
2023-02-22T04:58:25.805Z,95633.09
2023-02-22T04:59:27.452Z,95624.47
2023-02-22T05:00:33.613Z,95629.84
2023-02-22T05:01:37.962Z,95630.66
2023-02-22T05:02:40.130Z,95635.22
2023-02-22T05:03:42.274Z,95637.91
2023-02-22T05:04:44.768Z,95628.50
2023-02-22T05:05:46.660Z,95631.44
2023-02-22T05:06:48.579Z,95632.81
2023-02-22T05:07:50.446Z,95643.03
2023-02-22T05:08:53.245Z,95632.00
2023-02-22T05:09:54.819Z,95639.25
2023-02-22T05:10:56.413Z,95631.44
2023-02-22T05:11:58.013Z,95634.41
2023-02-22T05:12:59.676Z,95635.19
2023-02-22T05:14:01.353Z,95637.63
2023-02-22T05:15:05.251Z,95631.44
2023-02-22T05:16:07.086Z,95643.00
2023-02-22T05:17:08.857Z,95634.13
2023-02-22T05:18:10.433Z,95645.38
2023-02-22T05:19:12.035Z,95638.41
2023-02-22T05:20:34.888Z,95643.78
2023-02-22T05:21:36.486Z,95630.06
2023-02-22T05:22:38.062Z,95634.09
2023-02-22T05:23:39.904Z,95641.09
2023-02-22T05:24:41.502Z,95635.19
2023-02-22T05:25:43.072Z,95640.31
2023-02-22T05:26:45.275Z,95635.75
2023-02-22T05:28:03.170Z,95637.34
2023-02-22T05:29:05.077Z,95632.50
2023-02-22T05:30:09.192Z,95622.84
2023-02-22T05:31:10.864Z,95629.00
2023-02-22T05:32:12.664Z,95639.22
2023-02-22T05:33:14.253Z,95636.28
2023-02-22T05:34:16.237Z,95632.00
2023-02-22T05:35:21.919Z,95630.09
2023-02-22T05:36:23.858Z,95624.44
2023-02-22T05:37:25.421Z,95624.44
2023-02-22T05:38:27.077Z,95625.75
2023-02-22T05:39:29.089Z,95625.78
2023-02-22T05:40:31.481Z,95631.19
2023-02-22T05:41:33.091Z,95620.19
2023-02-22T05:42:34.716Z,95635.75
2023-02-22T05:43:36.826Z,95626.63
2023-02-22T05:44:38.461Z,95622.84
2023-02-22T05:45:40.073Z,95627.41
2023-02-22T05:46:41.729Z,95627.66
2023-02-22T05:47:43.353Z,95638.13
2023-02-22T05:48:44.935Z,95635.97
2023-02-22T05:49:46.538Z,95623.09
2023-02-22T05:50:49.886Z,95629.53
2023-02-22T05:51:51.790Z,95630.06
2023-02-22T05:52:53.646Z,95625.72
2023-02-22T05:53:55.226Z,95624.44
2023-02-22T05:54:56.975Z,95639.44
2023-02-22T05:55:58.627Z,95630.06
2023-02-22T05:57:01.013Z,95628.69
2023-02-22T05:58:05.745Z,95628.72
2023-02-22T05:59:07.391Z,95632.75
2023-02-22T06:00:10.533Z,95638.91
2023-02-22T06:01:14.930Z,95631.13
2023-02-22T06:02:16.621Z,95636.25
2023-02-22T06:03:18.276Z,95635.69
2023-02-22T06:04:20.168Z,95635.97
2023-02-22T06:05:22.046Z,95632.97
2023-02-22T06:06:23.647Z,95624.94
2023-02-22T06:07:25.365Z,95633.00
2023-02-22T06:08:26.993Z,95625.75
2023-02-22T06:09:28.747Z,95629.00
2023-02-22T06:10:30.746Z,95623.34
2023-02-22T06:11:32.383Z,95633.03
2023-02-22T06:12:34.010Z,95621.50
2023-02-22T06:13:36.369Z,95615.31
2023-02-22T06:14:38.014Z,95632.47
2023-02-22T06:15:39.618Z,95624.44
2023-02-22T06:16:41.211Z,95625.22
2023-02-22T06:17:43.132Z,95632.78
2023-02-22T06:18:44.958Z,95618.78
2023-02-22T06:19:46.508Z,95625.78
2023-02-22T06:20:48.255Z,95617.41
2023-02-22T06:21:51.540Z,95624.41
2023-02-22T06:22:56.128Z,95623.06
2023-02-22T06:23:57.793Z,95617.97
2023-02-22T06:24:59.372Z,95627.63
2023-02-22T06:26:01.029Z,95631.38
2023-02-22T06:27:02.667Z,95631.41
2023-02-22T06:28:04.608Z,95630.63
2023-02-22T06:29:06.210Z,95633.28
2023-02-22T06:30:10.795Z,95620.94
2023-02-22T06:31:13.499Z,95630.88
2023-02-22T06:32:15.224Z,95625.22
2023-02-22T06:33:16.898Z,95633.03
2023-02-22T06:34:18.768Z,95633.59
2023-02-22T06:35:20.870Z,95632.22
2023-02-22T06:36:22.469Z,95627.69
2023-02-22T06:37:24.063Z,95633.84
2023-02-22T06:38:27.831Z,95632.47
2023-02-22T06:39:29.502Z,95637.59
2023-02-22T06:40:31.168Z,95649.69
2023-02-22T06:41:32.745Z,95650.78
2023-02-22T06:42:34.462Z,95640.31
2023-02-22T06:43:36.066Z,95645.97
2023-02-22T06:44:37.660Z,95641.91
2023-02-22T06:45:39.293Z,95650.81
2023-02-22T06:46:47.375Z,95637.38
2023-02-22T06:47:49.755Z,95649.72
2023-02-22T06:48:52.124Z,95655.09
2023-02-22T06:49:57.519Z,95651.88
2023-02-22T06:50:59.090Z,95655.66
2023-02-22T06:52:00.761Z,95652.44
2023-02-22T06:53:02.384Z,95659.69
2023-02-22T06:54:04.497Z,95643.84
2023-02-22T06:55:06.193Z,95666.94
2023-02-22T06:56:07.774Z,95660.22
2023-02-22T06:57:10.240Z,95654.06
2023-02-22T06:58:11.819Z,95659.41
2023-02-22T06:59:13.447Z,95661.56
2023-02-22T07:00:17.571Z,95650.81
2023-02-22T07:01:19.463Z,95666.94
2023-02-22T07:02:21.311Z,95665.06
2023-02-22T07:03:23.052Z,95656.19
2023-02-22T07:04:24.702Z,95663.16
2023-02-22T07:05:27.382Z,95662.31
2023-02-22T07:06:28.962Z,95660.41
2023-02-22T07:07:30.635Z,95661.50
2023-02-22T07:08:32.195Z,95659.03
2023-02-22T07:09:33.819Z,95655.28
2023-02-22T07:10:36.446Z,95652.56
2023-02-22T07:11:38.628Z,95653.88
2023-02-22T07:12:40.198Z,95649.53
2023-02-22T07:13:41.794Z,95659.66
2023-02-22T07:14:43.384Z,95654.78
2023-02-22T07:15:45.043Z,95654.78
2023-02-22T07:16:46.755Z,95655.00
2023-02-22T07:17:48.524Z,95646.00
2023-02-22T07:18:50.121Z,95656.44
2023-02-22T07:19:51.723Z,95647.00
2023-02-22T07:20:54.268Z,95655.53
2023-02-22T07:21:59.248Z,95657.25
2023-02-22T07:23:01.418Z,95646.88
2023-02-22T07:24:05.411Z,95646.78
2023-02-22T07:25:10.000Z,95647.84
2023-02-22T07:26:12.179Z,95650.09
2023-02-22T07:27:13.821Z,95652.38
2023-02-22T07:28:15.658Z,95649.97
2023-02-22T07:29:17.309Z,95650.41
2023-02-22T07:30:25.350Z,95650.13
2023-02-22T07:31:29.556Z,95645.59
2023-02-22T07:32:31.427Z,95645.16
2023-02-22T07:33:33.152Z,95650.13
2023-02-22T07:34:34.737Z,95641.38
2023-02-22T07:35:39.754Z,95646.34
2023-02-22T07:36:41.412Z,95655.47
2023-02-22T07:37:43.300Z,95644.59
2023-02-22T07:38:45.827Z,95642.19
2023-02-22T07:39:47.290Z,95641.19
2023-02-22T07:40:48.849Z,95629.81
2023-02-22T07:41:50.420Z,95641.59
2023-02-22T07:43:01.332Z,95632.97
2023-02-22T07:44:02.966Z,95631.44
2023-02-22T07:45:04.829Z,95641.97
2023-02-22T07:46:06.587Z,95634.03
2023-02-22T07:47:08.964Z,95624.81
2023-02-22T07:48:12.551Z,95625.88
2023-02-22T07:49:14.956Z,95633.34
2023-02-22T07:50:17.645Z,95629.91
2023-02-22T07:51:20.771Z,95625.28
2023-02-22T07:52:22.493Z,95623.03
2023-02-22T07:53:30.124Z,95623.03
2023-02-22T07:54:31.795Z,95624.94
2023-02-22T07:55:34.028Z,95628.78
2023-02-22T07:56:35.744Z,95623.63
2023-02-22T07:57:37.356Z,95628.97
2023-02-22T07:58:39.008Z,95620.66
2023-02-22T07:59:40.585Z,95619.09
2023-02-22T08:00:44.018Z,95614.84
2023-02-22T08:01:45.602Z,95625.84
2023-02-22T08:02:47.304Z,95620.94
2023-02-22T08:03:49.033Z,95618.53
2023-02-22T08:04:50.656Z,95623.22
2023-02-22T08:05:56.837Z,95616.78
2023-02-22T08:06:58.485Z,95617.03
2023-02-22T08:08:00.160Z,95614.44
2023-02-22T08:09:01.783Z,95621.22
2023-02-22T08:10:06.679Z,95620.41
2023-02-22T08:11:08.407Z,95618.19
2023-02-22T08:12:10.000Z,95628.97
2023-02-22T08:13:11.715Z,95622.72
2023-02-22T08:14:16.378Z,95620.63
2023-02-22T08:15:24.963Z,95616.66
2023-02-22T08:16:26.480Z,95626.88
2023-02-22T08:17:28.145Z,95625.75
2023-02-22T08:18:29.738Z,95621.09
2023-02-22T08:19:31.408Z,95624.00
2023-02-22T08:20:32.993Z,95620.47
2023-02-22T08:21:34.614Z,95614.88
2023-02-22T08:22:36.222Z,95619.09
2023-02-22T08:23:38.857Z,95632.75
2023-02-22T08:24:40.671Z,95625.19
2023-02-22T08:25:42.457Z,95620.63
2023-02-22T08:26:47.313Z,95620.00
2023-02-22T08:27:48.968Z,95617.56
2023-02-22T08:28:50.685Z,95627.59
2023-02-22T08:29:52.823Z,95624.34
2023-02-22T08:30:54.449Z,95612.94
2023-02-22T08:31:56.351Z,95631.19
2023-02-22T08:32:58.929Z,95630.84
2023-02-22T08:34:01.106Z,95619.97
2023-02-22T08:35:03.096Z,95620.19
2023-02-22T08:36:05.144Z,95617.06
2023-02-22T08:37:06.949Z,95611.00
2023-02-22T08:38:16.639Z,95611.66
2023-02-22T08:39:18.282Z,95618.78
2023-02-22T08:40:22.409Z,95613.19
2023-02-22T08:41:24.089Z,95610.03
2023-02-22T08:42:25.629Z,95617.72
2023-02-22T08:43:28.486Z,95622.34
2023-02-22T08:44:30.106Z,95621.25
2023-02-22T08:45:31.830Z,95611.47
2023-02-22T08:46:33.469Z,95622.66
2023-02-22T08:47:35.053Z,95621.16
2023-02-22T08:48:36.696Z,95610.84
2023-02-22T08:49:38.311Z,95607.19
2023-02-22T08:50:41.845Z,95613.31
2023-02-22T08:51:43.510Z,95619.41
2023-02-22T08:52:45.139Z,95612.38
2023-02-22T08:53:46.801Z,95603.63
2023-02-22T08:54:48.558Z,95606.97
2023-02-22T08:55:50.160Z,95612.94
2023-02-22T08:56:51.761Z,95607.81
2023-02-22T08:57:53.361Z,95612.75
2023-02-22T08:58:55.898Z,95610.03
2023-02-22T08:59:57.509Z,95611.13
2023-02-22T09:00:59.103Z,95610.13
2023-02-22T09:02:02.770Z,95595.25
2023-02-22T09:03:07.000Z,95600.97
2023-02-22T09:04:08.712Z,95609.00
2023-02-22T09:05:10.519Z,95608.03
2023-02-22T09:06:12.131Z,95600.38
2023-02-22T09:07:14.145Z,95591.88
2023-02-22T09:08:16.669Z,95598.16
2023-02-22T09:09:21.321Z,95608.19
2023-02-22T09:10:28.564Z,95599.41
2023-02-22T09:11:30.198Z,95602.03
2023-02-22T09:12:31.859Z,95600.00
2023-02-22T09:13:33.494Z,95597.75
2023-02-22T09:14:35.237Z,95585.03
2023-02-22T09:15:37.250Z,95602.22
2023-02-22T09:16:38.882Z,95594.22
2023-02-22T09:17:40.504Z,95603.13
2023-02-22T09:18:44.329Z,95599.66
2023-02-22T09:19:46.210Z,95605.00
2023-02-22T09:20:47.790Z,95596.66
2023-02-22T09:22:00.097Z,95597.81
2023-02-22T09:23:02.972Z,95592.25
2023-02-22T09:24:08.465Z,95597.50
2023-02-22T09:25:16.660Z,95590.47
2023-02-22T09:26:18.807Z,95595.50
2023-02-22T09:27:20.471Z,95599.97
2023-02-22T09:28:22.283Z,95596.41
2023-02-22T09:29:26.137Z,95602.13
2023-02-22T09:30:31.948Z,95597.53
2023-02-22T09:31:36.605Z,95599.13
2023-02-22T09:32:38.482Z,95594.38
2023-02-22T09:33:41.485Z,95590.97
2023-02-22T09:34:45.876Z,95589.69
2023-02-22T09:35:49.829Z,95593.47
2023-02-22T09:36:51.425Z,95589.34
2023-02-22T09:37:54.875Z,95587.00
2023-02-22T09:38:58.845Z,95588.78
2023-02-22T09:40:00.514Z,95583.50
2023-02-22T09:41:12.405Z,95592.16
2023-02-22T09:42:17.188Z,95587.22
2023-02-22T09:43:18.901Z,95586.16
2023-02-22T09:44:28.448Z,95591.06
2023-02-22T09:45:48.324Z,95589.88
2023-02-22T09:46:51.132Z,95587.94
2023-02-22T09:47:57.668Z,95587.50
2023-02-22T09:49:06.233Z,95580.47
2023-02-22T09:50:16.632Z,95583.59
2023-02-22T09:51:23.334Z,95579.03
2023-02-22T09:52:37.403Z,95590.72
2023-02-22T09:53:42.560Z,95583.47
2023-02-22T09:54:51.961Z,95573.69
2023-02-22T09:55:57.301Z,95573.97
2023-02-22T09:57:02.991Z,95575.19
2023-02-22T09:58:17.688Z,95567.44
2023-02-22T09:59:26.980Z,95577.28
2023-02-22T10:00:33.901Z,95574.22
2023-02-22T10:01:41.033Z,95570.22
2023-02-22T10:02:45.389Z,95569.84
2023-02-22T10:03:56.479Z,95566.63
2023-02-22T10:05:34.647Z,95569.00
2023-02-22T10:06:37.269Z,95565.66
2023-02-22T10:07:48.630Z,95572.66
2023-02-22T10:08:56.376Z,95568.44
2023-02-22T10:09:58.827Z,95569.53
2023-02-22T10:11:19.359Z,95555.41
2023-02-22T10:12:31.118Z,95574.59
2023-02-22T10:13:42.172Z,95569.94
2023-02-22T10:15:08.439Z,95569.78
2023-02-22T10:16:19.440Z,95567.47
2023-02-22T10:17:40.522Z,95556.97
2023-02-22T10:19:08.299Z,95559.91
2023-02-22T10:20:28.661Z,95556.84
2023-02-22T10:21:45.303Z,95558.94
2023-02-22T10:22:56.828Z,95555.13
2023-02-22T10:24:24.704Z,95561.06
2023-02-22T10:25:28.086Z,95555.66
2023-02-22T10:26:32.731Z,95553.72
2023-02-22T10:27:40.322Z,95547.13
2023-02-22T10:28:47.934Z,95559.16
2023-02-22T10:29:54.196Z,95555.34
2023-02-22T10:31:05.141Z,95543.81
2023-02-22T10:32:14.027Z,95548.75
2023-02-22T10:33:19.122Z,95550.25
2023-02-22T10:34:29.795Z,95555.19
2023-02-22T10:35:35.297Z,95552.91
2023-02-22T10:36:39.163Z,95550.44
2023-02-22T10:37:40.761Z,95549.75
2023-02-22T10:38:48.825Z,95549.19
2023-02-22T10:39:52.976Z,95547.63
2023-02-22T10:41:24.018Z,95544.44
2023-02-22T10:42:27.231Z,95536.47
2023-02-22T10:43:29.558Z,95546.03
2023-02-22T10:44:32.519Z,95544.97
2023-02-22T10:45:36.984Z,95542.66
2023-02-22T10:46:40.044Z,95549.19
2023-02-22T10:47:41.667Z,95547.13
2023-02-22T10:48:45.848Z,95539.81
2023-02-22T10:49:51.436Z,95541.69
2023-02-22T10:50:54.860Z,95542.84
2023-02-22T10:52:04.731Z,95545.34
2023-02-22T10:53:07.610Z,95539.97
2023-02-22T10:54:15.079Z,95546.47
2023-02-22T10:55:19.752Z,95536.72
2023-02-22T10:56:23.118Z,95551.75
2023-02-22T10:57:32.102Z,95541.19
2023-02-22T10:59:04.192Z,95534.53
2023-02-22T11:00:29.657Z,95530.81
2023-02-22T11:01:31.277Z,95539.97
2023-02-22T11:02:35.572Z,95546.59
2023-02-22T11:03:37.198Z,95531.31
2023-02-22T11:04:51.343Z,95518.41
2023-02-22T11:05:53.421Z,95516.09
2023-02-22T11:07:00.801Z,95533.53
2023-02-22T11:08:23.003Z,95533.72
2023-02-22T11:09:24.606Z,95531.97
2023-02-22T11:10:32.255Z,95526.03
2023-02-22T11:11:34.077Z,95526.59
2023-02-22T11:12:38.406Z,95524.81
2023-02-22T11:13:40.326Z,95525.44
2023-02-22T11:14:42.622Z,95523.84
2023-02-22T11:15:44.906Z,95524.16
2023-02-22T11:16:50.705Z,95519.78
2023-02-22T11:17:55.212Z,95521.56
2023-02-22T11:19:25.786Z,95518.53
2023-02-22T11:20:35.620Z,95521.03
2023-02-22T11:21:37.563Z,95516.44
2023-02-22T11:22:41.314Z,95516.03
2023-02-22T11:23:44.957Z,95508.13
2023-02-22T11:25:15.099Z,95506.72
2023-02-22T11:26:20.733Z,95507.03
2023-02-22T11:27:34.029Z,95507.47
2023-02-22T11:28:36.358Z,95509.31
2023-02-22T11:29:37.908Z,95506.03
2023-02-22T11:30:39.694Z,95505.25
2023-02-22T11:31:45.688Z,95514.41
2023-02-22T11:32:50.666Z,95515.75
2023-02-22T11:35:20.533Z,95513.03
2023-02-22T11:36:42.995Z,95508.91
2023-02-22T11:37:44.682Z,95502.16
2023-02-22T11:38:56.173Z,95504.69
2023-02-22T11:40:22.346Z,95502.84
2023-02-22T11:41:30.752Z,95501.91
2023-02-22T11:42:32.250Z,95500.56
2023-02-22T11:43:34.513Z,95497.38
2023-02-22T11:44:36.055Z,95509.47
2023-02-22T11:45:44.169Z,95492.59
2023-02-22T11:46:48.929Z,95484.94
2023-02-22T11:47:52.480Z,95477.75
2023-02-22T11:48:56.964Z,95472.94
2023-02-22T11:49:58.605Z,95455.19
2023-02-22T11:51:27.390Z,95476.59
2023-02-22T11:52:37.206Z,95466.69
2023-02-22T11:54:28.612Z,95462.75
2023-02-22T11:55:43.084Z,95459.63
2023-02-22T11:56:48.988Z,95462.34
2023-02-22T11:58:04.486Z,95460.97
2023-02-22T11:59:13.027Z,95461.88
2023-02-22T12:00:39.460Z,95456.44
2023-02-22T12:02:22.501Z,95460.38
2023-02-22T12:03:24.074Z,95450.06
2023-02-22T12:04:43.797Z,95455.94
2023-02-22T12:06:07.030Z,95452.00
2023-02-22T12:07:15.418Z,95458.78
2023-02-22T12:08:30.021Z,95459.91
2023-02-22T12:09:34.378Z,95452.88
2023-02-22T12:10:55.845Z,95446.19
2023-02-22T12:12:16.722Z,95452.44
2023-02-22T12:13:36.701Z,95443.75
2023-02-22T12:14:59.716Z,95450.75
2023-02-22T12:16:16.987Z,95444.53
2023-02-22T12:17:54.329Z,95449.38
2023-02-22T12:18:59.922Z,95445.56
2023-02-22T12:20:24.791Z,95445.38
2023-02-22T12:21:29.774Z,95440.97
2023-02-22T12:22:36.759Z,95435.31
2023-02-22T12:23:54.842Z,95436.91
2023-02-22T12:25:09.711Z,95447.06
2023-02-22T12:26:20.296Z,95434.66
2023-02-22T12:27:28.431Z,95439.75
2023-02-22T12:28:51.645Z,95435.41
2023-02-22T12:30:34.989Z,95437.44
2023-02-22T12:31:40.021Z,95436.84
2023-02-22T12:32:46.315Z,95438.94
2023-02-22T12:34:27.313Z,95440.66
2023-02-22T12:35:34.882Z,95439.91
2023-02-22T12:36:47.205Z,95432.19
2023-02-22T12:37:56.338Z,95435.44
2023-02-22T12:39:07.380Z,95422.22
2023-02-22T12:40:24.578Z,95431.44
2023-02-22T12:41:54.640Z,95437.59
2023-02-22T12:42:56.166Z,95431.09
2023-02-22T12:44:04.293Z,95435.22
2023-02-22T12:45:13.956Z,95434.16
2023-02-22T12:46:26.901Z,95429.13
2023-02-22T12:47:37.338Z,95432.25
2023-02-22T12:48:44.976Z,95430.03
2023-02-22T12:50:00.428Z,95425.94
2023-02-22T12:51:21.850Z,95429.50
2023-02-22T12:52:49.607Z,95430.72
2023-02-22T12:54:05.039Z,95424.97
2023-02-22T12:55:15.983Z,95424.13
2023-02-22T12:56:37.600Z,95423.28